Time;durP1;ratioP1;P1;durP2;ratioP2;P2;SDS_P1;SDS_P2;PMS_P1;PMS_P2;Temp;Humidity;BMP_temperature;BMP_pressure;BME280_temperature;BME280_humidity;BME280_pressure;Samples;Min_cycle;Max_cycle;Signal;HPM_P1;HPM_P2
2023/03/18 00:02:18;;;;;;;12.37;7.80;;;11.40;99.90;;;;;;4986340;28;20046;-69
2023/03/18 00:04:45;;;;;;;12.63;7.85;;;11.50;99.90;;;;;;4989959;28;20049;-68
2023/03/18 00:07:11;;;;;;;11.57;6.90;;;11.40;99.90;;;;;;4988356;28;20444;-68
2023/03/18 00:09:37;;;;;;;14.82;7.65;;;11.40;99.90;;;;;;4992366;28;20033;-68
2023/03/18 00:12:03;;;;;;;12.82;7.22;;;11.50;99.90;;;;;;4985294;28;20546;-68
2023/03/18 00:14:30;;;;;;;12.52;6.95;;;11.50;99.90;;;;;;4989437;28;20054;-68
2023/03/18 00:16:56;;;;;;;15.55;7.70;;;11.50;99.90;;;;;;4987619;28;20093;-68
2023/03/18 00:19:23;;;;;;;12.70;7.55;;;11.50;99.90;;;;;;4993269;28;20078;-68
2023/03/18 00:21:49;;;;;;;13.27;7.47;;;11.40;99.90;;;;;;4996967;28;20054;-68
2023/03/18 00:24:17;;;;;;;15.98;8.10;;;11.50;99.90;;;;;;4988442;28;20423;-68
2023/03/18 00:26:43;;;;;;;11.95;7.72;;;11.50;99.90;;;;;;4988274;28;20082;-68
2023/03/18 00:29:09;;;;;;;13.33;8.80;;;11.50;99.90;;;;;;4987448;28;20136;-68
2023/03/18 00:31:38;;;;;;;18.58;8.20;;;11.50;99.90;;;;;;4988365;28;20652;-68
2023/03/18 00:34:08;;;;;;;17.13;8.73;;;11.40;99.90;;;;;;4983394;28;20458;-68
2023/03/18 00:36:35;;;;;;;17.48;8.57;;;11.50;99.90;;;;;;4995680;28;20082;-68
2023/03/18 00:39:02;;;;;;;;;;;11.50;99.90;;;;;;4986099;28;20046;-68
2023/03/18 00:41:29;;;;;;;17.30;9.25;;;11.50;99.90;;;;;;4989648;28;20020;-69
2023/03/18 00:43:55;;;;;;;18.15;9.40;;;11.50;99.90;;;;;;4992910;28;20080;-68
2023/03/18 00:46:30;;;;;;;19.13;10.07;;;11.50;99.90;;;;;;4987738;28;20050;-68
2023/03/18 00:48:58;;;;;;;16.63;9.35;;;11.50;99.90;;;;;;4969671;28;20496;-68
2023/03/18 00:51:28;;;;;;;15.15;9.98;;;11.50;99.90;;;;;;4996402;28;20147;-69
2023/03/18 00:53:56;;;;;;;23.40;10.80;;;11.50;99.90;;;;;;4987994;28;20053;-68
2023/03/18 00:56:25;;;;;;;18.70;10.48;;;11.40;99.90;;;;;;4988005;28;20043;-68
2023/03/18 00:58:52;;;;;;;17.02;10.27;;;11.40;99.90;;;;;;4968356;28;20518;-68
2023/03/18 01:01:20;;;;;;;18.88;10.18;;;11.40;99.90;;;;;;4988639;28;20046;-67
2023/03/18 01:03:48;;;;;;;17.67;10.52;;;11.30;99.90;;;;;;4994896;28;20065;-68
2023/03/18 01:06:21;;;;;;;18.70;10.88;;;11.20;99.90;;;;;;4991351;28;20468;-68
2023/03/18 01:08:48;;;;;;;19.45;11.45;;;11.20;99.90;;;;;;4982033;28;20127;-68
2023/03/18 01:11:15;;;;;;;19.40;10.45;;;11.10;99.90;;;;;;4984522;28;20117;-68
2023/03/18 01:13:40;;;;;;;20.92;11.82;;;11.00;99.90;;;;;;4992458;28;20112;-68
2023/03/18 01:16:08;;;;;;;18.47;10.87;;;11.00;99.90;;;;;;4987417;28;20460;-68
2023/03/18 01:18:35;;;;;;;18.85;11.35;;;10.90;99.90;;;;;;4986806;28;20498;-68
2023/03/18 01:21:01;;;;;;;20.60;11.55;;;10.80;99.90;;;;;;4987625;28;20125;-68
2023/03/18 01:23:29;;;;;;;19.83;12.18;;;10.80;99.90;;;;;;4983628;28;20046;-68
2023/03/18 01:25:58;;;;;;;20.60;11.95;;;10.80;99.90;;;;;;4989104;28;20166;-68
2023/03/18 01:28:26;;;;;;;24.75;12.68;;;10.70;99.90;;;;;;4986959;28;20479;-68
2023/03/18 01:30:52;;;;;;;22.73;13.10;;;10.60;99.90;;;;;;4988889;28;20214;-68
2023/03/18 01:33:18;;;;;;;22.65;13.20;;;10.50;99.90;;;;;;4986992;28;20117;-68
2023/03/18 01:35:46;;;;;;;20.05;12.05;;;10.50;99.90;;;;;;4986122;28;20085;-68
2023/03/18 01:38:12;;;;;;;23.38;12.07;;;10.50;99.90;;;;;;4972292;28;20133;-68
2023/03/18 01:40:42;;;;;;;23.65;12.57;;;10.40;99.90;;;;;;4988099;28;20050;-68
2023/03/18 01:43:13;;;;;;;23.80;12.20;;;10.30;99.90;;;;;;4987576;28;20132;-68
2023/03/18 01:45:41;;;;;;;22.00;12.38;;;10.30;99.90;;;;;;4993254;28;20077;-68
2023/03/18 01:48:13;;;;;;;20.45;12.35;;;10.30;99.90;;;;;;4970341;28;20437;-68
2023/03/18 01:50:39;;;;;;;22.80;13.18;;;10.20;99.90;;;;;;4985112;28;20046;-68
2023/03/18 01:53:11;;;;;;;20.90;12.82;;;10.10;99.90;;;;;;4986672;28;20096;-67
2023/03/18 01:55:38;;;;;;;21.40;12.55;;;10.20;99.90;;;;;;4983789;28;20403;-68
2023/03/18 01:58:14;;;;;;;25.67;13.52;;;10.10;99.90;;;;;;4983982;28;20050;-68
2023/03/18 02:00:44;;;;;;;19.83;13.55;;;10.00;99.90;;;;;;4983468;28;20100;-68
2023/03/18 02:03:11;;;;;;;24.17;13.55;;;10.00;99.90;;;;;;4990581;28;20050;-68
2023/03/18 02:05:39;;;;;;;20.98;13.27;;;10.00;99.90;;;;;;4986014;28;20046;-68
2023/03/18 02:08:04;;;;;;;27.40;14.13;;;9.90;99.90;;;;;;4983516;28;20046;-68
2023/03/18 02:10:31;;;;;;;25.00;13.93;;;9.90;99.90;;;;;;4983521;28;20500;-68
2023/03/18 02:13:01;;;;;;;24.65;14.40;;;9.90;99.90;;;;;;4990178;28;20037;-67
2023/03/18 02:15:28;;;;;;;25.30;14.13;;;9.90;99.90;;;;;;4984356;28;20096;-68
2023/03/18 02:18:00;;;;;;;25.10;14.02;;;9.80;99.90;;;;;;4986523;28;20038;-68
2023/03/18 02:20:41;;;;;;;22.48;14.23;;;9.80;99.90;;;;;;4987912;28;20080;-68
2023/03/18 02:23:54;;;;;;;25.85;14.95;;;9.80;99.90;;;;;;4988374;28;20537;-68
2023/03/18 02:26:28;;;;;;;23.33;14.52;;;9.70;99.90;;;;;;4997594;28;20509;-68
2023/03/18 02:28:58;;;;;;;23.40;14.88;;;9.80;99.90;;;;;;4991105;28;20090;-68
2023/03/18 02:31:25;;;;;;;29.00;15.45;;;9.70;99.90;;;;;;4987254;28;20412;-68
2023/03/18 02:33:50;;;;;;;;;;;9.70;99.90;;;;;;4982990;28;20512;-68
2023/03/18 02:36:23;;;;;;;20.60;13.52;;;9.60;99.90;;;;;;4984535;28;19918;-68
2023/03/18 02:38:49;;;;;;;28.83;15.13;;;9.60;99.90;;;;;;4976324;28;20402;-68
2023/03/18 02:41:23;;;;;;;27.27;15.87;;;9.50;99.90;;;;;;4996008;28;20050;-68
2023/03/18 02:43:49;;;;;;;25.55;14.77;;;9.50;99.90;;;;;;4992102;28;20045;-67
2023/03/18 02:46:39;;;;;;;23.25;14.50;;;9.50;99.90;;;;;;4985252;28;20316;-68
2023/03/18 02:49:06;;;;;;;24.00;14.25;;;9.40;99.90;;;;;;5001906;28;20050;-68
2023/03/18 02:51:35;;;;;;;26.08;15.55;;;9.40;99.90;;;;;;4991760;28;20122;-68
2023/03/18 02:54:15;;;;;;;31.58;14.90;;;9.40;99.90;;;;;;5002594;28;20052;-68
2023/03/18 02:56:42;;;;;;;28.40;14.73;;;9.40;99.90;;;;;;4986008;28;20154;-68
2023/03/18 02:59:08;;;;;;;;;;;9.30;99.90;;;;;;4984109;28;20325;-67
2023/03/18 03:01:35;;;;;;;25.65;13.07;;;9.30;99.90;;;;;;4987307;28;19926;-68
2023/03/18 03:04:01;;;;;;;21.80;14.00;;;9.30;99.90;;;;;;4986495;28;20341;-68
2023/03/18 03:06:27;;;;;;;22.65;13.32;;;9.20;99.90;;;;;;4982803;28;20049;-68
2023/03/18 03:08:53;;;;;;;32.75;15.02;;;9.20;99.90;;;;;;4985720;28;20039;-68
2023/03/18 03:11:22;;;;;;;34.03;14.93;;;9.20;99.90;;;;;;4989140;28;20046;-68
2023/03/18 03:13:48;;;;;;;27.50;15.57;;;9.20;99.90;;;;;;4995036;28;20064;-68
2023/03/18 03:16:15;;;;;;;29.27;15.75;;;9.20;99.90;;;;;;4989324;28;20058;-68
2023/03/18 03:18:42;;;;;;;27.85;15.93;;;9.20;99.90;;;;;;4987304;28;20082;-68
2023/03/18 03:21:08;;;;;;;27.58;14.90;;;9.20;99.90;;;;;;4986421;28;20054;-68
2023/03/18 03:23:34;;;;;;;29.60;15.17;;;9.20;99.90;;;;;;4987703;28;20274;-68
2023/03/18 03:26:00;;;;;;;28.70;15.60;;;9.20;99.90;;;;;;4971583;28;20135;-68
2023/03/18 03:28:27;;;;;;;26.67;14.88;;;9.20;99.90;;;;;;4986371;28;20649;-68
2023/03/18 03:30:54;;;;;;;30.02;15.80;;;9.20;99.90;;;;;;4986337;28;20041;-68
2023/03/18 03:33:21;;;;;;;28.58;15.00;;;9.20;99.90;;;;;;4991324;28;20038;-68
2023/03/18 03:35:47;;;;;;;24.58;15.40;;;9.20;99.90;;;;;;4986940;28;20118;-68
2023/03/18 03:38:12;;;;;;;29.07;14.63;;;9.30;99.90;;;;;;4987071;28;20054;-68
2023/03/18 03:40:38;;;;;;;29.63;14.00;;;9.30;99.90;;;;;;4992304;28;20333;-68
2023/03/18 03:43:05;;;;;;;25.77;14.23;;;9.30;99.90;;;;;;4993315;28;20369;-68
2023/03/18 03:45:32;;;;;;;27.27;14.77;;;9.30;99.90;;;;;;4991842;28;20053;-68
2023/03/18 03:47:58;;;;;;;26.77;13.70;;;9.30;99.90;;;;;;4986196;28;20173;-68
2023/03/18 03:50:27;;;;;;;24.50;13.52;;;9.30;99.90;;;;;;4987494;28;20034;-68
2023/03/18 03:52:53;;;;;;;24.47;13.43;;;9.30;99.90;;;;;;4988707;28;20128;-68
2023/03/18 03:55:20;;;;;;;23.90;13.82;;;9.20;99.90;;;;;;4986144;28;20792;-68
2023/03/18 03:57:46;;;;;;;29.65;14.95;;;9.30;99.90;;;;;;4997485;22;20093;-67
2023/03/18 04:00:15;;;;;;;25.38;13.82;;;9.30;99.90;;;;;;5011823;28;20599;-67
2023/03/18 04:02:43;;;;;;;29.08;13.85;;;9.20;99.90;;;;;;4992480;28;20050;-67
2023/03/18 04:05:11;;;;;;;27.48;13.70;;;9.20;99.90;;;;;;5001286;28;20050;-67
2023/03/18 04:07:38;;;;;;;24.90;13.25;;;9.20;99.90;;;;;;4992592;28;20424;-67
2023/03/18 04:10:05;;;;;;;21.75;13.00;;;9.20;99.90;;;;;;5007658;28;20042;-67
2023/03/18 04:12:30;;;;;;;23.88;12.73;;;9.20;99.90;;;;;;4992229;28;20050;-67
2023/03/18 04:14:56;;;;;;;27.40;12.77;;;9.20;99.90;;;;;;4994869;28;20440;-67
2023/03/18 04:17:22;;;;;;;24.10;12.33;;;9.20;99.90;;;;;;4999348;28;20061;-67
2023/03/18 04:19:48;;;;;;;24.67;12.80;;;9.20;99.90;;;;;;5001420;28;20054;-67
2023/03/18 04:22:15;;;;;;;21.38;12.43;;;9.10;99.90;;;;;;5004981;28;20258;-67
2023/03/18 04:24:41;;;;;;;25.83;12.85;;;9.20;99.90;;;;;;4974214;28;20094;-67
2023/03/18 04:27:07;;;;;;;25.17;13.07;;;9.10;99.90;;;;;;4996863;28;20464;-67
2023/03/18 04:29:32;;;;;;;26.53;12.73;;;9.20;99.90;;;;;;4990813;28;20070;-67
2023/03/18 04:32:03;;;;;;;22.60;12.33;;;9.20;99.90;;;;;;4988972;28;20109;-67
2023/03/18 04:34:29;;;;;;;30.98;13.70;;;9.20;99.90;;;;;;4989050;28;20077;-67
2023/03/18 04:36:57;;;;;;;27.20;12.57;;;9.30;99.90;;;;;;4994010;28;20046;-67
2023/03/18 04:39:22;;;;;;;25.25;12.27;;;9.20;99.90;;;;;;4998641;28;20050;-67
2023/03/18 04:41:48;;;;;;;24.27;13.43;;;9.30;99.90;;;;;;5012773;28;20416;-67
2023/03/18 04:44:14;;;;;;;33.00;12.20;;;9.30;99.90;;;;;;5006712;28;20397;-67
2023/03/18 04:46:39;;;;;;;26.53;12.63;;;9.30;99.90;;;;;;4992838;28;20042;-67
2023/03/18 04:49:05;;;;;;;29.83;12.77;;;9.30;99.90;;;;;;5004108;28;20046;-67
2023/03/18 04:51:31;;;;;;;30.85;12.63;;;9.30;99.90;;;;;;4992751;28;20038;-67
2023/03/18 04:53:56;;;;;;;24.47;12.80;;;9.30;99.90;;;;;;4994414;28;20404;-68
2023/03/18 04:56:22;;;;;;;29.70;12.90;;;9.30;99.90;;;;;;5013497;28;20045;-69
2023/03/18 04:58:49;;;;;;;28.05;13.38;;;9.40;99.90;;;;;;4990023;28;20042;-69
2023/03/18 05:01:15;;;;;;;27.20;12.80;;;9.30;99.90;;;;;;4971423;28;20042;-69
2023/03/18 05:03:41;;;;;;;30.73;13.40;;;9.30;99.90;;;;;;4980498;28;20456;-69
2023/03/18 05:06:08;;;;;;;28.13;12.85;;;9.30;99.90;;;;;;4989519;28;20769;-69
2023/03/18 05:08:34;;;;;;;29.90;12.52;;;9.30;99.90;;;;;;4995930;28;20212;-67
2023/03/18 05:11:00;;;;;;;33.90;13.38;;;9.20;99.90;;;;;;4993691;28;20042;-69
2023/03/18 05:13:25;;;;;;;37.67;13.80;;;9.30;99.90;;;;;;4991989;28;20049;-69
2023/03/18 05:15:51;;;;;;;32.40;13.37;;;9.30;99.90;;;;;;4988428;28;20562;-69
2023/03/18 05:18:17;;;;;;;35.27;14.30;;;9.30;99.90;;;;;;4987773;28;20108;-69
2023/03/18 05:20:43;;;;;;;40.03;14.70;;;9.30;99.90;;;;;;5003650;28;20484;-69
2023/03/18 05:23:09;;;;;;;36.85;15.05;;;9.30;99.90;;;;;;5005048;28;20046;-69
2023/03/18 05:25:35;;;;;;;42.95;17.40;;;9.30;99.90;;;;;;4972179;28;20382;-69
2023/03/18 05:28:00;;;;;;;54.75;21.67;;;9.30;99.90;;;;;;4994019;28;20123;-69
2023/03/18 05:30:26;;;;;;;43.70;19.07;;;9.30;99.90;;;;;;5000459;28;20147;-69
2023/03/18 05:32:52;;;;;;;45.23;20.17;;;9.30;99.90;;;;;;4994100;28;20484;-70
2023/03/18 05:35:18;;;;;;;41.63;19.70;;;9.30;99.90;;;;;;4992854;28;20286;-70
2023/03/18 05:37:45;;;;;;;45.38;18.70;;;9.30;99.90;;;;;;4995062;28;20213;-69
2023/03/18 05:40:11;;;;;;;39.58;18.08;;;9.30;99.90;;;;;;5003890;28;20034;-69
2023/03/18 05:42:39;;;;;;;43.78;19.58;;;9.30;99.90;;;;;;4987283;28;20042;-69
2023/03/18 05:45:06;;;;;;;62.85;26.60;;;9.30;99.90;;;;;;4987395;28;20459;-69
2023/03/18 05:47:32;;;;;;;49.53;22.63;;;9.30;99.90;;;;;;5003046;28;20041;-69
2023/03/18 05:49:58;;;;;;;42.13;20.83;;;9.30;99.90;;;;;;4986936;28;20137;-69
2023/03/18 05:52:27;;;;;;;34.25;16.50;;;9.30;99.90;;;;;;4988559;28;20242;-69
2023/03/18 05:54:53;;;;;;;35.87;16.93;;;9.30;99.90;;;;;;4994111;28;20042;-69
2023/03/18 05:57:19;;;;;;;35.58;18.25;;;9.30;99.90;;;;;;4986984;28;20053;-69
2023/03/18 05:59:45;;;;;;;30.80;15.85;;;9.30;99.90;;;;;;4986789;28;20423;-69
2023/03/18 06:02:11;;;;;;;33.60;17.00;;;9.30;99.90;;;;;;4987260;28;20050;-70
2023/03/18 06:04:37;;;;;;;35.35;16.30;;;9.40;99.90;;;;;;4998070;28;20057;-69
2023/03/18 06:07:04;;;;;;;29.67;15.95;;;9.30;99.90;;;;;;4991494;28;20098;-70
2023/03/18 06:09:32;;;;;;;31.55;16.48;;;9.30;99.90;;;;;;4988314;28;20053;-69
2023/03/18 06:11:58;;;;;;;32.13;16.00;;;9.40;99.90;;;;;;4993715;28;20093;-69
2023/03/18 06:14:28;;;;;;;29.83;16.03;;;9.30;99.90;;;;;;5012072;28;20443;-69
2023/03/18 06:16:55;;;;;;;30.77;14.85;;;9.40;99.90;;;;;;5005490;28;20283;-69
2023/03/18 06:19:21;;;;;;;27.10;14.45;;;9.40;99.90;;;;;;4974364;28;20331;-69
2023/03/18 06:21:47;;;;;;;30.48;14.52;;;9.30;99.90;;;;;;4995078;28;20054;-69
2023/03/18 06:24:14;;;;;;;32.90;15.60;;;9.30;99.90;;;;;;4993267;28;20530;-69
2023/03/18 06:26:40;;;;;;;31.30;17.35;;;9.30;99.90;;;;;;4987527;28;20460;-69
2023/03/18 06:29:06;;;;;;;33.95;16.33;;;9.40;99.90;;;;;;4997223;28;20445;-69
2023/03/18 06:31:33;;;;;;;27.45;15.10;;;9.30;99.90;;;;;;4987523;28;20047;-69
2023/03/18 06:33:58;;;;;;;27.85;16.35;;;9.40;99.90;;;;;;4993894;28;20081;-69
2023/03/18 06:36:24;;;;;;;30.90;17.70;;;9.40;99.90;;;;;;5005086;28;20074;-69
2023/03/18 06:38:50;;;;;;;31.67;15.32;;;9.30;99.90;;;;;;4993649;28;20054;-69
2023/03/18 06:41:17;;;;;;;31.50;17.35;;;9.40;99.90;;;;;;4994432;28;20045;-69
2023/03/18 06:43:42;;;;;;;34.33;17.35;;;9.40;99.90;;;;;;4985904;28;20381;-70
2023/03/18 06:46:09;;;;;;;30.53;17.50;;;9.40;99.90;;;;;;4985975;28;20069;-69
2023/03/18 06:48:39;;;;;;;;;;;9.40;99.90;;;;;;4996339;28;20053;-69
2023/03/18 06:51:05;;;;;;;29.58;14.77;;;9.40;99.90;;;;;;4990490;28;19964;-69
2023/03/18 06:53:31;;;;;;;29.40;15.35;;;9.50;99.90;;;;;;5003563;28;20444;-69
2023/03/18 06:55:56;;;;;;;26.80;15.50;;;9.50;99.90;;;;;;4987567;28;20189;-69
2023/03/18 06:58:23;;;;;;;28.73;15.77;;;9.60;99.90;;;;;;5011061;28;20428;-69
2023/03/18 07:00:49;;;;;;;30.33;15.45;;;9.60;99.90;;;;;;4982257;28;20508;-70
2023/03/18 07:03:14;;;;;;;30.13;15.93;;;9.60;99.90;;;;;;4985699;28;20057;-69
2023/03/18 07:05:41;;;;;;;27.93;16.23;;;9.70;99.90;;;;;;4995839;28;20100;-69
2023/03/18 07:08:08;;;;;;;26.42;15.88;;;9.70;99.90;;;;;;4997732;28;20030;-69
2023/03/18 07:10:34;;;;;;;28.92;15.88;;;9.80;99.90;;;;;;4997589;28;20078;-70
2023/03/18 07:13:00;;;;;;;28.05;15.02;;;9.80;99.90;;;;;;4991127;28;20037;-69
2023/03/18 07:15:26;;;;;;;29.13;14.90;;;9.80;99.90;;;;;;4989726;28;20056;-70
2023/03/18 07:17:52;;;;;;;31.80;15.63;;;9.90;99.90;;;;;;4994618;28;20042;-69
2023/03/18 07:20:19;;;;;;;32.38;16.10;;;9.90;99.90;;;;;;4988544;28;20050;-69
2023/03/18 07:22:45;;;;;;;31.55;15.93;;;9.90;99.90;;;;;;4991761;28;20239;-69
2023/03/18 07:25:12;;;;;;;30.85;14.68;;;10.00;99.90;;;;;;4993793;28;20060;-69
2023/03/18 07:27:38;;;;;;;29.52;15.25;;;10.00;99.90;;;;;;4987505;28;20057;-69
2023/03/18 07:30:04;;;;;;;;;;;10.00;99.90;;;;;;4992497;28;20202;-69
2023/03/18 07:32:30;;;;;;;30.48;15.88;;;10.10;99.90;;;;;;4986084;28;20031;-69
2023/03/18 07:34:56;;;;;;;27.00;15.80;;;10.10;99.90;;;;;;4989930;28;20045;-69
2023/03/18 07:37:22;;;;;;;29.97;16.03;;;10.20;99.90;;;;;;4995981;28;20050;-69
2023/03/18 07:39:48;;;;;;;;;;;10.20;99.90;;;;;;4989119;28;20046;-69
2023/03/18 07:42:14;;;;;;;30.60;15.43;;;10.20;99.90;;;;;;4990546;28;19929;-69
2023/03/18 07:44:40;;;;;;;27.50;14.80;;;10.30;99.90;;;;;;4986147;28;20050;-69
2023/03/18 07:47:05;;;;;;;26.00;14.90;;;10.30;99.90;;;;;;4994456;28;20121;-69
2023/03/18 07:49:31;;;;;;;28.23;15.17;;;10.40;99.90;;;;;;4994066;28;20408;-69
2023/03/18 07:51:57;;;;;;;26.03;14.80;;;10.50;99.90;;;;;;4987505;28;20292;-69
2023/03/18 07:54:23;;;;;;;28.33;14.77;;;10.50;99.90;;;;;;4995203;28;20095;-70
2023/03/18 07:56:50;;;;;;;;;;;10.50;99.90;;;;;;5006913;28;20524;-69
2023/03/18 07:59:19;;;;;;;28.00;15.23;;;10.60;99.90;;;;;;4992581;28;19917;-69
2023/03/18 08:01:48;;;;;;;28.08;15.43;;;10.60;99.90;;;;;;5005941;28;20407;-69
2023/03/18 08:04:13;;;;;;;25.05;15.00;;;10.60;99.90;;;;;;4994029;28;20389;-69
2023/03/18 08:06:39;;;;;;;30.37;16.57;;;10.70;99.90;;;;;;4995573;28;20049;-69
2023/03/18 08:09:05;;;;;;;28.27;15.17;;;10.70;99.90;;;;;;4990290;28;20045;-69
2023/03/18 08:11:32;;;;;;;28.00;15.23;;;10.70;99.90;;;;;;4997526;28;20480;-69
2023/03/18 08:13:58;;;;;;;24.42;14.73;;;10.70;99.90;;;;;;4994408;28;20076;-70
2023/03/18 08:16:24;;;;;;;30.77;15.65;;;10.70;99.90;;;;;;5005153;28;20626;-69
2023/03/18 08:18:50;;;;;;;23.65;15.27;;;10.80;99.90;;;;;;4988442;28;20149;-69
2023/03/18 08:21:16;;;;;;;29.58;14.38;;;10.80;99.90;;;;;;5007482;28;20050;-69
2023/03/18 08:23:44;;;;;;;28.30;15.55;;;10.80;99.90;;;;;;4988558;28;20598;-70
2023/03/18 08:26:10;;;;;;;24.25;14.48;;;10.80;99.90;;;;;;4996103;28;20042;-69
2023/03/18 08:28:36;;;;;;;29.92;15.65;;;10.80;99.90;;;;;;4991080;28;20046;-70
2023/03/18 08:31:03;;;;;;;23.33;14.00;;;10.80;99.90;;;;;;4994804;28;20116;-69
2023/03/18 08:33:29;;;;;;;28.95;16.10;;;10.80;99.90;;;;;;4993453;28;20372;-70
2023/03/18 08:35:55;;;;;;;25.80;15.03;;;10.80;99.90;;;;;;4988833;28;20093;-69
2023/03/18 08:38:22;;;;;;;27.67;15.35;;;10.80;99.90;;;;;;4993611;28;20125;-69
2023/03/18 08:40:48;;;;;;;23.42;14.38;;;10.80;99.90;;;;;;5021894;28;20100;-69
2023/03/18 08:43:13;;;;;;;28.50;15.30;;;10.80;99.90;;;;;;4990900;28;20129;-69
2023/03/18 08:45:42;;;;;;;27.20;15.53;;;10.80;99.90;;;;;;4979537;28;20476;-69
2023/03/18 08:48:08;;;;;;;26.83;15.35;;;10.80;99.90;;;;;;5003615;28;20404;-69
2023/03/18 08:50:34;;;;;;;31.13;15.77;;;10.90;99.90;;;;;;4971263;28;20311;-70
2023/03/18 08:53:01;;;;;;;32.38;16.77;;;10.90;99.90;;;;;;4993668;28;20092;-69
2023/03/18 08:55:31;;;;;;;28.13;15.50;;;11.00;99.90;;;;;;4977203;28;20049;-69
2023/03/18 08:57:57;;;;;;;24.90;15.27;;;11.00;99.90;;;;;;4986640;28;20049;-69
2023/03/18 09:00:24;;;;;;;25.40;16.55;;;11.00;99.90;;;;;;4996573;28;20042;-69
2023/03/18 09:02:52;;;;;;;25.00;15.88;;;11.10;99.90;;;;;;4996507;28;20503;-69
2023/03/18 09:05:19;;;;;;;24.90;16.33;;;11.10;99.90;;;;;;4989924;28;20096;-69
2023/03/18 09:07:45;;;;;;;;;;;11.10;99.90;;;;;;4989094;28;20057;-70
2023/03/18 09:10:13;;;;;;;29.70;15.20;;;11.10;99.90;;;;;;4993327;28;20259;-69
2023/03/18 09:12:41;;;;;;;26.67;16.65;;;11.20;99.90;;;;;;4995589;28;20050;-69
2023/03/18 09:15:08;;;;;;;25.65;15.85;;;11.20;99.90;;;;;;4987221;28;20092;-69
2023/03/18 09:17:36;;;;;;;27.70;15.98;;;11.30;99.90;;;;;;4987160;28;20056;-69
2023/03/18 09:20:03;;;;;;;27.40;16.02;;;11.40;99.90;;;;;;4994744;28;20042;-69
2023/03/18 09:22:29;;;;;;;26.58;16.65;;;11.50;99.90;;;;;;4992175;28;20081;-69
2023/03/18 09:24:54;;;;;;;29.73;16.47;;;11.60;99.90;;;;;;4987971;28;20042;-69
2023/03/18 09:27:20;;;;;;;28.87;16.10;;;11.70;99.90;;;;;;5000999;28;20132;-69
2023/03/18 09:29:45;;;;;;;34.60;17.00;;;11.80;99.90;;;;;;4992331;28;20048;-69
2023/03/18 09:32:12;;;;;;;23.93;16.00;;;11.80;99.90;;;;;;4991940;28;20384;-69
2023/03/18 09:34:37;;;;;;;30.80;16.40;;;11.90;99.90;;;;;;4990642;28;20146;-69
2023/03/18 09:37:03;;;;;;;30.37;16.93;;;12.00;99.90;;;;;;4996261;28;20440;-69
2023/03/18 09:39:29;;;;;;;30.17;16.73;;;12.00;99.90;;;;;;4993207;28;20046;-70
2023/03/18 09:42:16;;;;;;;27.30;15.53;;;12.10;99.90;;;;;;4993201;28;20053;-69
2023/03/18 09:44:42;;;;;;;28.08;15.18;;;12.20;99.90;;;;;;4984304;28;20081;-67
2023/03/18 09:47:11;;;;;;;;;;;12.30;99.90;;;;;;4986792;28;20042;-67
2023/03/18 09:50:23;;;;;;;30.63;15.73;;;12.40;99.90;;;;;;4996428;28;20336;-69
2023/03/18 09:53:14;;;;;;;32.95;17.38;;;12.40;99.90;;;;;;4962587;28;20497;-67
2023/03/18 09:55:48;;;;;;;28.92;15.65;;;12.40;99.90;;;;;;4988756;28;20046;-67
2023/03/18 09:58:40;;;;;;;29.42;16.67;;;12.50;99.90;;;;;;5057098;22;20046;-68
2023/03/18 10:01:09;;;;;;;27.80;15.68;;;12.50;99.90;;;;;;4940724;28;20051;-68
2023/03/18 10:03:47;;;;;;;28.95;15.70;;;12.50;99.90;;;;;;4962340;28;20074;-68
2023/03/18 10:06:22;;;;;;;29.00;15.30;;;12.50;99.90;;;;;;4962001;28;20358;-68
2023/03/18 10:09:14;;;;;;;24.92;14.48;;;12.50;99.90;;;;;;4947246;28;20047;-68
2023/03/18 10:11:48;;;;;;;27.20;14.48;;;12.50;99.90;;;;;;4943721;28;20480;-68
2023/03/18 10:14:24;;;;;;;26.60;14.65;;;12.50;99.90;;;;;;4949204;28;20436;-69
2023/03/18 10:17:15;;;;;;;23.85;14.07;;;12.60;99.90;;;;;;4942363;28;20047;-69
2023/03/18 10:19:47;;;;;;;22.90;13.48;;;12.70;99.90;;;;;;4923510;28;20051;-69
2023/03/18 10:22:47;;;;;;;22.38;13.10;;;12.70;99.90;;;;;;4947045;28;20054;-69
2023/03/18 10:25:22;;;;;;;23.38;12.73;;;12.70;99.90;;;;;;4943094;28;20082;-69
2023/03/18 10:28:16;;;;;;;23.08;12.35;;;12.80;99.90;;;;;;4960123;28;20050;-69
2023/03/18 10:31:00;;;;;;;17.83;11.52;;;12.90;99.90;;;;;;4931512;28;20050;-69
2023/03/18 10:33:52;;;;;;;19.08;11.43;;;13.00;99.90;;;;;;4941707;28;20045;-68
2023/03/18 10:36:30;;;;;;;19.88;12.02;;;13.10;99.90;;;;;;4934517;28;20053;-69
2023/03/18 10:38:58;;;;;;;19.95;11.23;;;13.20;99.90;;;;;;4940769;28;20555;-69
2023/03/18 10:41:36;;;;;;;23.88;12.02;;;13.30;99.90;;;;;;4957349;28;20039;-69
2023/03/18 10:44:24;;;;;;;19.20;11.02;;;13.30;99.90;;;;;;4958104;28;20038;-69
2023/03/18 10:47:00;;;;;;;23.05;11.38;;;13.50;99.90;;;;;;4926365;28;20138;-68
2023/03/18 10:49:36;;;;;;;14.00;8.95;;;13.80;99.90;;;;;;4941790;28;20071;-68
2023/03/18 10:52:20;;;;;;;16.75;9.40;;;14.00;99.90;;;;;;4945839;28;20066;-69
2023/03/18 10:54:51;;;;;;;13.95;8.43;;;14.10;99.90;;;;;;4926039;28;20051;-69
2023/03/18 10:57:17;;;;;;;15.23;8.38;;;14.30;99.90;;;;;;4938038;28;20054;-68
2023/03/18 10:59:44;;;;;;;14.63;7.97;;;14.40;99.90;;;;;;4942009;28;20516;-69
2023/03/18 11:02:32;;;;;;;15.88;8.27;;;14.50;99.90;;;;;;4946780;28;20052;-69
2023/03/18 11:05:20;;;;;;;15.27;8.57;;;14.70;99.90;;;;;;4942693;28;20101;-69
2023/03/18 11:08:05;;;;;;;14.20;7.72;;;14.80;99.90;;;;;;4959100;28;20075;-69
2023/03/18 11:10:36;;;;;;;14.68;7.80;;;14.90;99.90;;;;;;4957584;28;20035;-69
2023/03/18 11:13:03;;;;;;;14.30;7.88;;;15.10;99.90;;;;;;4958701;28;20034;-69
2023/03/18 11:15:34;;;;;;;;;;;15.40;99.90;;;;;;4947354;28;20053;-69
2023/03/18 11:18:02;;;;;;;12.18;6.15;;;15.50;99.90;;;;;;4963733;28;19917;-69
2023/03/18 11:20:41;;;;;;;10.93;5.78;;;15.60;99.90;;;;;;4929874;28;20306;-69
2023/03/18 11:23:19;;;;;;;11.63;5.35;;;15.70;99.90;;;;;;4944436;28;20050;-69
2023/03/18 11:25:54;;;;;;;6.38;3.70;;;15.80;99.90;;;;;;4945777;28;20387;-69
2023/03/18 11:28:22;;;;;;;8.68;5.00;;;15.80;99.90;;;;;;4937273;28;20404;-69
2023/03/18 11:30:51;;;;;;;9.18;4.22;;;15.90;99.90;;;;;;4963746;28;20045;-69
2023/03/18 11:33:22;;;;;;;7.00;4.50;;;16.00;99.90;;;;;;4950128;28;20221;-69
2023/03/18 11:35:52;;;;;;;10.38;5.63;;;16.10;99.90;;;;;;4965753;28;20066;-69
2023/03/18 11:38:54;;;;;;;10.88;5.22;;;16.10;99.90;;;;;;4948108;28;20057;-68
2023/03/18 11:41:25;;;;;;;9.05;5.10;;;16.10;99.90;;;;;;4959954;28;20105;-69
2023/03/18 11:43:53;;;;;;;9.35;5.65;;;16.10;99.90;;;;;;4970728;28;20448;-69
2023/03/18 11:46:22;;;;;;;11.60;5.88;;;16.20;99.90;;;;;;4945810;28;20050;-69
2023/03/18 11:48:48;;;;;;;9.48;4.90;;;16.10;99.90;;;;;;4951071;28;20046;-69
2023/03/18 11:51:32;;;;;;;14.30;6.07;;;16.00;99.90;;;;;;4962764;28;20480;-69
2023/03/18 11:54:16;;;;;;;11.50;5.80;;;15.90;99.90;;;;;;4950528;28;20050;-69
2023/03/18 11:57:07;;;;;;;10.15;6.13;;;15.90;99.90;;;;;;4949286;28;20101;-69
2023/03/18 11:59:59;;;;;;;9.07;6.13;;;15.70;99.90;;;;;;4949991;28;20031;-69
2023/03/18 12:02:34;;;;;;;12.13;6.80;;;15.60;99.90;;;;;;4963122;28;20038;-69
2023/03/18 12:05:04;;;;;;;12.23;6.50;;;15.60;99.90;;;;;;4941417;28;20508;-69
2023/03/18 12:07:48;;;;;;;14.05;6.40;;;15.80;99.90;;;;;;4950248;28;20043;-69
2023/03/18 12:10:19;;;;;;;11.68;6.38;;;16.20;99.90;;;;;;4963005;28;20045;-69
2023/03/18 12:12:59;;;;;;;10.05;6.32;;;16.40;99.90;;;;;;4946850;28;20665;-69
2023/03/18 12:15:32;;;;;;;10.88;6.05;;;16.70;99.90;;;;;;4959724;28;20038;-69
2023/03/18 12:18:26;;;;;;;13.93;6.65;;;16.90;99.90;;;;;;4944186;28;20087;-69
2023/03/18 12:20:53;;;;;;;10.18;5.93;;;17.00;99.90;;;;;;4959973;28;20050;-69
2023/03/18 12:23:44;;;;;;;13.05;6.47;;;16.90;99.90;;;;;;4960537;28;20149;-69
2023/03/18 12:26:13;;;;;;;10.02;6.60;;;16.90;99.90;;;;;;4959653;28;20104;-69
2023/03/18 12:29:16;;;;;;;7.20;4.88;;;17.10;99.90;;;;;;4962088;28;20289;-69
2023/03/18 12:32:06;;;;;;;8.38;4.70;;;17.40;99.90;;;;;;4967745;28;20035;-69
2023/03/18 12:34:45;;;;;;;8.20;5.05;;;17.50;99.90;;;;;;4944478;28;20141;-69
2023/03/18 12:37:42;;;;;;;7.43;4.78;;;17.40;99.90;;;;;;4943399;28;20050;-69
2023/03/18 12:40:20;;;;;;;7.82;4.95;;;17.10;99.90;;;;;;4937043;28;20073;-69
2023/03/18 12:43:13;;;;;;;11.15;6.15;;;17.00;99.90;;;;;;4946665;28;20069;-69
2023/03/18 12:45:44;;;;;;;8.52;5.10;;;17.00;99.90;;;;;;4965244;28;20621;-69
2023/03/18 12:48:25;;;;;;;12.10;5.75;;;16.80;99.90;;;;;;4944485;28;20097;-70
2023/03/18 12:50:57;;;;;;;7.43;4.95;;;16.80;99.90;;;;;;4961591;28;20043;-69